| time (UTC) | temp F | wind direction | speed MPH | gust MPH | rain 1hr in | rain 24hr in | rain mn in | humidity % | barometer mb |
| 20260502163831 | 62 | 0.0 | 0.0 | 0.00 | 0.00 | 0.00 | 55 | 1012.4 | |
| 20260502162819 | 61 | 0.0 | 0.0 | 0.00 | 0.00 | 0.00 | 57 | 1012.5 | |
| 20260502161807 | 61 | 0.0 | 0.0 | 0.00 | 0.00 | 0.00 | 58 | 1012.4 | |
| 20260502160755 | 60 | 0.0 | 0.0 | 0.00 | 0.00 | 0.00 | 59 | 1012.4 | |
| 20260502151654 | 58 | 0.0 | 0.0 | 0.00 | 0.00 | 0.00 | 62 | 1012.6 | |
| 20260502150642 | 57 | 0.0 | 0.0 | 0.00 | 0.00 | 0.00 | 63 | 1012.7 | |
| 20260502130416 | 53 | 0.0 | 0.0 | 0.00 | 0.00 | 0.00 | 72 | 1012.0 | |
| 20260502123340 | 52 | 0.0 | 0.0 | 0.00 | 0.00 | 0.00 | 75 | 1012.0 | |
| 20260502122327 | 52 | 0.0 | 0.0 | 0.00 | 0.00 | 0.00 | 75 | 1011.9 | |
| 20260502121315 | 52 | 0.0 | 0.0 | 0.00 | 0.00 | 0.00 | 75 | 1011.7 | |
| 20260502120303 | 51 | 0.0 | 0.0 | 0.00 | 0.00 | 0.00 | 76 | 1011.4 | |
| 20260502115251 | 51 | 0.0 | 0.0 | 0.00 | 0.00 | 0.00 | 75 | 1011.8 | |
| 20260502114239 | 51 | 0.0 | 0.0 | 0.00 | 0.00 | 0.00 | 75 | 1011.4 | |
| 20260502113227 | 50 | 0.0 | 0.0 | 0.00 | 0.00 | 0.00 | 75 | 1011.5 | |
| 20260502112215 | 50 | 0.0 | 0.0 | 0.00 | 0.00 | 0.00 | 76 | 1011.3 | |
| 20260502111202 | 50 | 0.0 | 0.0 | 0.00 | 0.00 | 0.00 | 76 | 1011.4 | |
| 20260502110150 | 50 | 0.0 | 0.0 | 0.00 | 0.00 | 0.00 | 76 | 1011.3 | |
| 20260502105138 | 49 | 0.0 | 0.0 | 0.00 | 0.00 | 0.00 | 76 | 1011.2 | |
| 20260502104126 | 49 | 0.0 | 0.0 | 0.00 | 0.00 | 0.00 | 76 | 1011.1 | |
| 20260502103114 | 49 | 0.0 | 0.0 | 0.00 | 0.00 | 0.00 | 76 | 1010.7 | |
| 20260502102102 | 49 | 0.0 | 0.0 | 0.00 | 0.00 | 0.00 | 76 | 1010.7 | |
| 20260502101049 | 48 | 0.0 | 0.0 | 0.00 | 0.00 | 0.00 | 75 | 1010.3 | |
| 20260502090936 | 48 | 0.0 | 0.0 | 0.00 | 0.00 | 0.00 | 75 | 1009.6 | |
| 20260502070710 | 50 | 0.0 | 0.0 | 0.00 | 0.00 | 0.00 | 76 | 1008.6 | |
| 20260502065658 | 51 | 0.0 | 0.0 | 0.00 | 0.00 | 0.00 | 76 | 1008.6 | |
| 20260502064646 | 51 | 0.0 | 0.0 | 0.00 | 0.00 | 0.00 | 76 | 1008.3 | |
| 20260502063634 | 51 | 0.0 | 0.0 | 0.00 | 0.00 | 0.00 | 76 | 1008.3 | |
| 20260502062622 | 51 | 0.0 | 0.0 | 0.00 | 0.00 | 0.00 | 77 | 1008.2 | |
| 20260502061609 | 51 | 0.0 | 0.0 | 0.00 | 0.00 | 0.00 | 77 | 1008.1 | |
| 20260502060557 | 51 | 0.0 | 0.0 | 0.00 | 0.00 | 0.00 | 77 | 1008.0 | |
| 20260502055545 | 51 | 0.0 | 0.0 | 0.00 | 0.00 | 0.00 | 77 | 1007.9 | |
| 20260502054533 | 52 | 0.0 | 0.0 | 0.00 | 0.00 | 0.00 | 77 | 1007.8 | |
| 20260502053520 | 52 | 0.0 | 0.0 | 0.00 | 0.00 | 0.00 | 77 | 1007.8 | |
| 20260502052508 | 52 | 0.0 | 0.0 | 0.00 | 0.00 | 0.00 | 78 | 1007.6 | |
| 20260502051456 | 52 | 0.0 | 0.0 | 0.00 | 0.00 | 0.00 | 78 | 1007.6 | |
| 20260502050444 | 52 | 0.0 | 0.0 | 0.00 | 0.00 | 0.00 | 78 | 1007.6 | |
| 20260502045432 | 52 | 0.0 | 0.0 | 0.00 | 0.00 | 0.00 | 78 | 1007.4 | |
| 20260502044420 | 52 | 0.0 | 0.0 | 0.00 | 0.00 | 0.00 | 78 | 1007.3 | |
| 20260502043407 | 52 | 0.0 | 0.0 | 0.00 | 0.00 | 0.00 | 78 | 1007.1 | |
| 20260502042355 | 53 | 0.0 | 0.0 | 0.00 | 0.00 | 0.00 | 79 | 1007.1 | |
| 20260502041343 | 53 | 0.0 | 0.0 | 0.00 | 0.00 | 0.00 | 79 | 1007.0 | |
| 20260502040331 | 53 | 0.0 | 0.0 | 0.00 | 0.00 | 0.00 | 79 | 1006.8 | |
| 20260502035319 | 53 | 0.0 | 0.0 | 0.00 | 0.00 | 0.00 | 79 | 1006.7 | |
| 20260502034307 | 53 | 0.0 | 0.0 | 0.00 | 0.00 | 0.00 | 79 | 1006.7 | |
| 20260502033255 | 53 | 0.0 | 0.0 | 0.00 | 0.00 | 0.00 | 80 | 1006.6 | |
| 20260502032242 | 53 | 0.0 | 0.0 | 0.00 | 0.00 | 0.00 | 79 | 1006.5 | |
| 20260502031230 | 53 | 0.0 | 0.0 | 0.00 | 0.00 | 0.00 | 79 | 1006.6 | |
| 20260502030218 | 52 | 0.0 | 0.0 | 0.00 | 0.00 | 0.00 | 79 | 1006.5 | |
| 20260502025206 | 52 | 0.0 | 0.0 | 0.00 | 0.00 | 0.00 | 79 | 1006.6 | |
| 20260502024154 | 52 | 0.0 | 0.0 | 0.00 | 0.00 | 0.00 | 79 | 1006.5 | |
| 20260502023142 | 52 | 0.0 | 0.0 | 0.00 | 0.00 | 0.00 | 79 | 1006.5 | |
| 20260502022130 | 52 | 0.0 | 0.0 | 0.00 | 0.00 | 0.00 | 79 | 1006.5 | |
| 20260502021117 | 52 | 0.0 | 0.0 | 0.00 | 0.00 | 0.00 | 79 | 1006.3 | |
| 20260502020105 | 52 | 0.0 | 0.0 | 0.00 | 0.00 | 0.00 | 79 | 1006.3 | |
| 20260502015053 | 52 | 0.0 | 0.0 | 0.00 | 0.00 | 0.00 | 79 | 1006.1 | |
| 20260502014041 | 52 | 0.0 | 0.0 | 0.00 | 0.00 | 0.00 | 79 | 1006.1 | |
| 20260502013029 | 52 | 0.0 | 0.0 | 0.00 | 0.00 | 0.00 | 79 | 1005.9 | |
| 20260502012016 | 53 | 0.0 | 0.0 | 0.00 | 0.00 | 0.00 | 79 | 1005.8 | |
| 20260502011004 | 53 | 0.0 | 0.0 | 0.00 | 0.00 | 0.00 | 79 | 1006.0 | |
| 20260502005952 | 53 | 0.0 | 0.0 | 0.00 | 0.00 | 0.00 | 80 | 1005.9 | |
| 20260502004940 | 53 | 0.0 | 0.0 | 0.00 | 0.00 | 0.00 | 79 | 1005.8 | |
| 20260502003928 | 53 | 0.0 | 0.0 | 0.00 | 0.00 | 0.00 | 79 | 1005.6 | |
| 20260502002916 | 53 | 0.0 | 0.0 | 0.00 | 0.00 | 0.00 | 80 | 1005.2 | |
| 20260502001904 | 54 | 0.0 | 0.0 | 0.00 | 0.00 | 0.00 | 80 | 1005.2 | |
| 20260502000851 | 54 | 0.0 | 0.0 | 0.00 | 0.00 | 0.00 | 80 | 1005.1 | |
| 20260501235839 | 53 | 0.0 | 0.0 | 0.00 | 0.00 | 0.00 | 80 | 1004.6 | |
| 20260501234827 | 54 | 0.0 | 0.0 | 0.00 | 0.00 | 0.00 | 80 | 1004.6 | |
| 20260501233814 | 53 | 0.0 | 0.0 | 0.00 | 0.00 | 0.00 | 80 | 1004.4 | |
| 20260501232802 | 54 | 0.0 | 0.0 | 0.00 | 0.00 | 0.00 | 80 | 1004.4 | |
| 20260501231750 | 54 | 0.0 | 0.0 | 0.00 | 0.00 | 0.00 | 80 | 1004.3 | |
| 20260501230738 | 53 | 0.0 | 0.0 | 0.00 | 0.00 | 0.00 | 80 | 1004.0 | |
| 20260501225726 | 54 | 0.0 | 0.0 | 0.00 | 0.00 | 0.00 | 80 | 1004.0 | |
| 20260501224714 | 53 | 0.0 | 0.0 | 0.00 | 0.00 | 0.00 | 80 | 1003.8 | |
| 20260501223702 | 53 | 0.0 | 0.0 | 0.00 | 0.00 | 0.00 | 80 | 1003.4 | |
| 20260501222649 | 53 | 0.0 | 0.0 | 0.00 | 0.00 | 0.00 | 80 | 1003.9 | |
| 20260501221637 | 53 | 0.0 | 0.0 | 0.00 | 0.00 | 0.00 | 80 | 1003.6 | |
| 20260501220625 | 53 | 0.0 | 0.0 | 0.00 | 0.00 | 0.00 | 80 | 1003.3 | |
| 20260501215613 | 53 | 0.0 | 0.0 | 0.00 | 0.00 | 0.00 | 81 | 1003.6 | |
| 20260501214600 | 53 | 0.0 | 0.0 | 0.00 | 0.00 | 0.00 | 81 | 1003.3 | |
| 20260501213548 | 53 | 0.0 | 0.0 | 0.00 | 0.00 | 0.00 | 81 | 1003.3 | |
| 20260501212536 | 53 | 0.0 | 0.0 | 0.00 | 0.00 | 0.00 | 81 | 1003.2 | |
| 20260501211524 | 53 | 0.0 | 0.0 | 0.00 | 0.00 | 0.00 | 81 | 1003.2 | |
| 20260501210512 | 53 | 0.0 | 0.0 | 0.00 | 0.00 | 0.00 | 82 | 1003.0 | |
| 20260501205459 | 52 | 0.0 | 0.0 | 0.00 | 0.00 | 0.00 | 81 | 1003.0 | |
| 20260501204447 | 53 | 0.0 | 0.0 | 0.00 | 0.00 | 0.00 | 81 | 1003.4 | |
| 20260501203435 | 53 | 0.0 | 0.0 | 0.00 | 0.00 | 0.00 | 82 | 1003.7 | |
| 20260501202423 | 53 | 0.0 | 0.0 | 0.00 | 0.00 | 0.00 | 82 | 1003.4 | |
| 20260501201411 | 53 | 0.0 | 0.0 | 0.00 | 0.00 | 0.00 | 82 | 1003.3 | |
| 20260501200358 | 53 | 0.0 | 0.0 | 0.00 | 0.00 | 0.00 | 82 | 1003.2 | |
| 20260501195346 | 53 | 0.0 | 0.0 | 0.00 | 0.00 | 0.00 | 82 | 1002.9 | |
| 20260501194334 | 52 | 0.0 | 0.0 | 0.00 | 0.00 | 0.00 | 82 | 1002.9 | |
| 20260501193322 | 52 | 0.0 | 0.0 | 0.00 | 0.00 | 0.00 | 83 | 1003.0 | |
| 20260501192310 | 52 | 0.0 | 0.0 | 0.00 | 0.00 | 0.00 | 83 | 1003.1 | |
| 20260501191258 | 52 | 0.0 | 0.0 | 0.00 | 0.00 | 0.00 | 83 | 1003.1 | |
| 20260501190245 | 52 | 0.0 | 0.0 | 0.00 | 0.00 | 0.00 | 83 | 1003.2 | |
| 20260501185233 | 52 | 0.0 | 0.0 | 0.00 | 0.00 | 0.00 | 83 | 1003.4 | |
| 20260501184221 | 52 | 0.0 | 0.0 | 0.00 | 0.00 | 0.00 | 83 | 1003.3 | |
| 20260501183209 | 52 | 0.0 | 0.0 | 0.00 | 0.00 | 0.00 | 83 | 1003.6 | |
| 20260501182157 | 52 | 0.0 | 0.0 | 0.00 | 0.00 | 0.00 | 83 | 1003.7 | |
| 20260501181145 | 52 | 0.0 | 0.0 | 0.00 | 0.00 | 0.00 | 83 | 1003.9 | |
| 20260501180132 | 52 | 0.0 | 0.0 | 0.00 | 0.00 | 0.00 | 83 | 1004.1 | |
| 20260501175120 | 52 | 0.0 | 0.0 | 0.00 | 0.00 | 0.00 | 83 | 1004.3 | |
| 20260501174108 | 52 | 0.0 | 0.0 | 0.00 | 0.00 | 0.00 | 83 | 1004.4 | |
| 20260501173056 | 51 | 0.0 | 0.0 | 0.00 | 0.00 | 0.00 | 83 | 1004.5 |